Hanover, NH

12:53 AM EST on January 30, 2015 (GMT -0500)
Montshire Museum | Change Station
CLOSE
Current Station
Personal Weather Station
Location: Norwich, VT
Elevation: 436 ft
Nearby Weather Stations
Active Advisory: Winter Weather Advisory

Elev 436 ft 43.70 °N, 72.31 °W | Updated 26 seconds ago

Snow
Snow
24.0 °F
Feels Like 24 °F
N
0.0
Wind Variable Wind from WSW
Gusts 0.0 mph

Today
High -- | Low -- °F
--% Chance of Precip.
Yesterday
High -- | Low -- °F
Precip. -- in
7:08 AM 4:57 PM
Waxing Gibbous, 80% visible
Pressure 29.99 in
Visibility 1.5 miles
Clouds Overcast 1600 ft
Windchill 24 °F
Dew Point 23 °F
Humidity 90%
Rainfall 0.00 in
Snow Depth Not available.
UV 0 out of 12
Pollen .10 out of 12
Air Quality Not available.
Flu Activity Not available.
METAR KLEB 300453Z AUTO VRB03KT 1 1/2SM -SN OVC016 M03/M06 A2994 RMK AO2 SNB09 SLP153 P0000 T10331061 410111228

More Conditions Fewer Conditions

Pressure 29.99 in
Visibility 1.5 miles
Clouds Overcast 1600 ft
Windchill 24 °F
Dew Point 23 °F
Humidity 90%
Rainfall 0.00 in
Snow Depth Not available.
UV 0 out of 12
Pollen .10 out of 12
Air Quality Not available.
Flu Activity Not available.
METAR KLEB 300453Z AUTO VRB03KT 1 1/2SM -SN OVC016 M03/M06 A2994 RMK AO2 SNB09 SLP153 P0000 T10331061 410111228

More Conditions Fewer Conditions

10-Day Weather Forecast

Almanac

Astronomy

Jan. 30, 2015 Rise Set
Actual Time
Civil Twilight
Nautical Twilight
Astronomical Twilight
Moon
Length of Visible Light
Length of Day
Tomorrow will be .
, % of the Moon is Illuminated

Today's Extremes

State Highs State Lows

Community

WunderPhotos

Upload Photos

1,791,722 photos uploaded!

WunderBlogs® & News

Nearby

Air Quality

  Air Quality AQ Index Pollutant
Not available.

Snow Depth

Station Depth Elevation

Earthquake Activity

City Distance Mag. Time & Date
Minimum magnitude displayed is 2.5.

Coastal Water Temperatures

Place Temperature

Nearby Weather Stations